French Corral, California
Current Conditions -  °F | °C
As of 5:58 AM on Friday 19 Dec 2014 (Local Time) from KBAB Reporting Station
Overcast Overcast  
Wind Chill: 53°   Ceiling: 4100
Heat Index: 53°   Visibility: 10mi
Dew Point: 47°   Wind: 14mph
Humidity: 78%   Direction: 140°SE
Pressure: 30.1"   Gusts: NA
Location:  39.1816°N, 121.266°W
Report Text: KBAB 191358Z 14012KT 10SM OVC041 12/08 A3010 RMK AO2A SLP270 T01190081 $
Loading
Personal Weather Stations






























Interactive Weather Map New forecast layout! Learn more

10-Day Weather Forecast

Advertisements
Track Severe Weather on mobile